Time;durP1;ratioP1;P1;durP2;ratioP2;P2;SDS_P1;SDS_P2;PMS_P1;PMS_P2;Temp;Humidity;BMP_temperature;BMP_pressure;BME280_temperature;BME280_humidity;BME280_pressure;Samples;Min_cycle;Max_cycle;Signal;HPM_P1;HPM_P2
2022/05/14 00:01:12;;;;;;;4.70;1.95;;;;;;;;;;6188768;23;20001;-86
2022/05/14 00:03:38;;;;;;;3.50;1.85;;;;;;;;;;6189195;23;20113;-85
2022/05/14 00:06:06;;;;;;;3.58;1.95;;;;;;;;;;6189453;23;20001;-85
2022/05/14 00:08:32;;;;;;;4.80;1.80;;;;;;;;;;6212490;23;20106;-85
2022/05/14 00:13:43;;;;;;;3.78;1.75;;;;;;;;;;6188602;23;20020;-85
2022/05/14 00:16:10;;;;;;;3.03;1.35;;;;;;;;;;6188718;23;20009;-84
2022/05/14 00:18:36;;;;;;;2.90;1.52;;;;;;;;;;6189307;23;20001;-85
2022/05/14 00:21:02;;;;;;;6.35;1.80;;;;;;;;;;6189338;23;20001;-85
2022/05/14 00:23:28;;;;;;;4.65;1.75;;;;;;;;;;6189240;23;20016;-85
2022/05/14 00:25:54;;;;;;;3.58;1.50;;;;;;;;;;6188920;23;20139;-85
2022/05/14 00:28:21;;;;;;;3.30;1.45;;;;;;;;;;6188463;23;20543;-86
2022/05/14 00:30:47;;;;;;;2.10;1.20;;;;;;;;;;6188186;23;20005;-84
2022/05/14 00:33:13;;;;;;;3.72;1.40;;;;;;;;;;6187993;23;20016;-83
2022/05/14 00:35:40;;;;;;;2.10;1.50;;;;;;;;;;6188041;23;20052;-85
2022/05/14 00:38:08;;;;;;;4.95;1.42;;;;;;;;;;6187573;23;20008;-84
2022/05/14 00:40:45;;;;;;;4.88;1.50;;;;;;;;;;6210714;23;20044;-85
2022/05/14 00:43:11;;;;;;;6.45;1.52;;;;;;;;;;6188480;23;20093;-85
2022/05/14 00:45:39;;;;;;;1.63;1.30;;;;;;;;;;6187424;23;20008;-85
2022/05/14 00:48:06;;;;;;;2.28;1.25;;;;;;;;;;6188432;23;20087;-86
2022/05/14 00:50:32;;;;;;;2.45;1.50;;;;;;;;;;6188307;23;20016;-85
2022/05/14 00:53:04;;;;;;;3.10;1.50;;;;;;;;;;6212073;23;20017;-85
2022/05/14 00:55:31;;;;;;;6.50;1.60;;;;;;;;;;6212530;23;20001;-86
2022/05/14 00:57:57;;;;;;;3.38;1.20;;;;;;;;;;6188725;23;20007;-85
2022/05/14 01:00:24;;;;;;;4.32;1.55;;;;;;;;;;6190908;23;20001;-85
2022/05/14 01:02:51;;;;;;;2.40;1.27;;;;;;;;;;6190341;23;20001;-85
2022/05/14 01:05:20;;;;;;;7.35;1.88;;;;;;;;;;6189825;23;20012;-85
2022/05/14 01:07:49;;;;;;;3.88;1.27;;;;;;;;;;6189939;23;20108;-85
2022/05/14 01:10:18;;;;;;;4.65;1.55;;;;;;;;;;6213418;23;20009;-85
2022/05/14 01:12:46;;;;;;;3.90;1.40;;;;;;;;;;6189826;23;20005;-85
2022/05/14 01:15:14;;;;;;;2.92;1.20;;;;;;;;;;6213381;23;20313;-84
2022/05/14 01:17:41;;;;;;;2.88;1.63;;;;;;;;;;6211169;23;20070;-84
2022/05/14 01:20:07;;;;;;;1.42;1.00;;;;;;;;;;6211899;23;19989;-84
2022/05/14 01:22:36;;;;;;;2.47;1.33;;;;;;;;;;6194179;23;20005;-85
2022/05/14 01:27:49;;;;;;;2.45;1.58;;;;;;;;;;6193351;23;20096;-85
2022/05/14 01:30:16;;;;;;;3.67;1.70;;;;;;;;;;6217340;23;20056;-85
2022/05/14 01:32:42;;;;;;;3.55;1.50;;;;;;;;;;6194196;23;20052;-85
2022/05/14 01:35:08;;;;;;;3.88;1.35;;;;;;;;;;6195091;23;20076;-86
2022/05/14 01:37:34;;;;;;;5.55;1.67;;;;;;;;;;6218121;23;20024;-86
2022/05/14 01:40:00;;;;;;;3.17;1.30;;;;;;;;;;6193262;23;20001;-85
2022/05/14 01:42:26;;;;;;;3.35;1.63;;;;;;;;;;6193818;23;20044;-85
2022/05/14 01:44:52;;;;;;;6.18;1.85;;;;;;;;;;6193519;23;20001;-85
2022/05/14 01:47:18;;;;;;;3.58;1.52;;;;;;;;;;6217104;23;20016;-85
2022/05/14 01:49:45;;;;;;;7.38;1.83;;;;;;;;;;6192093;23;20052;-85
2022/05/14 01:52:11;;;;;;;3.38;1.75;;;;;;;;;;6191951;23;20063;-83
2022/05/14 01:54:37;;;;;;;3.00;1.60;;;;;;;;;;6192057;23;20005;-84
2022/05/14 01:57:03;;;;;;;1.92;1.60;;;;;;;;;;6215433;23;20001;-85
2022/05/14 01:59:29;;;;;;;2.67;1.73;;;;;;;;;;6191332;23;20379;-84
2022/05/14 02:01:55;;;;;;;3.30;1.60;;;;;;;;;;6191339;23;19997;-85
2022/05/14 02:04:21;;;;;;;5.00;2.00;;;;;;;;;;6191791;23;20001;-86
2022/05/14 02:06:47;;;;;;;3.55;1.60;;;;;;;;;;6190795;23;20346;-85
2022/05/14 02:09:14;;;;;;;3.83;1.73;;;;;;;;;;6191864;23;20005;-85
2022/05/14 02:11:41;;;;;;;7.20;1.70;;;;;;;;;;6192190;23;20001;-85
2022/05/14 02:14:07;;;;;;;2.63;1.60;;;;;;;;;;6193101;23;20464;-85
2022/05/14 02:16:33;;;;;;;5.25;2.17;;;;;;;;;;6192410;23;20063;-84
2022/05/14 02:18:59;;;;;;;3.13;1.65;;;;;;;;;;6215231;23;20005;-85
2022/05/14 02:21:26;;;;;;;3.80;1.55;;;;;;;;;;6192300;23;19997;-84
2022/05/14 02:23:53;;;;;;;5.72;1.60;;;;;;;;;;6216309;23;20012;-84
2022/05/14 02:26:19;;;;;;;5.35;1.80;;;;;;;;;;6202317;23;20408;-85
2022/05/14 02:28:45;;;;;;;3.42;1.75;;;;;;;;;;6191724;23;20024;-84
2022/05/14 02:31:11;;;;;;;5.43;1.75;;;;;;;;;;6214476;23;20009;-85
2022/05/14 02:33:37;;;;;;;2.22;1.50;;;;;;;;;;6214182;23;20008;-85
2022/05/14 02:36:04;;;;;;;4.13;1.67;;;;;;;;;;6213844;23;20001;-86
2022/05/14 02:38:32;;;;;;;5.85;1.58;;;;;;;;;;6213977;23;20005;-84
2022/05/14 02:40:58;;;;;;;2.72;1.60;;;;;;;;;;6190905;23;20347;-84
2022/05/14 02:43:24;;;;;;;3.40;1.48;;;;;;;;;;6189457;23;20069;-84
2022/05/14 02:45:50;;;;;;;3.55;1.63;;;;;;;;;;6190969;23;19997;-83
2022/05/14 02:48:17;;;;;;;5.13;1.63;;;;;;;;;;6190512;23;20009;-85
2022/05/14 02:50:43;;;;;;;4.80;1.90;;;;;;;;;;6215677;23;20060;-85
2022/05/14 02:53:09;;;;;;;5.45;1.77;;;;;;;;;;6191287;23;20001;-86
2022/05/14 02:55:35;;;;;;;7.68;3.03;;;;;;;;;;6191015;23;20016;-83
2022/05/14 02:58:01;;;;;;;5.05;1.60;;;;;;;;;;6190599;23;19997;-85
2022/05/14 03:00:27;;;;;;;4.60;1.88;;;;;;;;;;6189625;23;20077;-85
2022/05/14 03:02:54;;;;;;;4.43;1.60;;;;;;;;;;6189945;23;20008;-85
2022/05/14 03:05:21;;;;;;;2.30;1.63;;;;;;;;;;6213685;23;20344;-84
2022/05/14 03:07:47;;;;;;;5.13;1.75;;;;;;;;;;6213039;23;20009;-84
2022/05/14 03:10:13;;;;;;;5.07;2.10;;;;;;;;;;6212646;23;20009;-84
2022/05/14 03:12:39;;;;;;;3.97;1.65;;;;;;;;;;6212323;23;20012;-84
2022/05/14 03:15:06;;;;;;;8.93;1.98;;;;;;;;;;6212096;23;20478;-85
2022/05/14 03:17:35;;;;;;;2.95;1.98;;;;;;;;;;6212885;23;20064;-85
2022/05/14 03:20:06;;;;;;;3.60;1.70;;;;;;;;;;6211901;23;20396;-84
2022/05/14 03:22:32;;;;;;;3.87;1.83;;;;;;;;;;6189022;23;20032;-83
2022/05/14 03:24:59;;;;;;;4.25;1.88;;;;;;;;;;6188281;23;20228;-84
2022/05/14 03:27:25;;;;;;;3.28;1.95;;;;;;;;;;6188642;23;20073;-85
2022/05/14 03:29:51;;;;;;;5.38;1.92;;;;;;;;;;6188351;23;20465;-83
2022/05/14 03:32:17;;;;;;;5.15;1.80;;;;;;;;;;6188732;23;20085;-85
2022/05/14 03:34:45;;;;;;;5.70;1.88;;;;;;;;;;6189458;23;20008;-86
2022/05/14 03:37:11;;;;;;;3.40;1.52;;;;;;;;;;6189514;23;20001;-85
2022/05/14 03:39:37;;;;;;;5.65;1.73;;;;;;;;;;6188452;23;20466;-84
2022/05/14 03:42:03;;;;;;;2.53;1.30;;;;;;;;;;6211942;23;20064;-85
2022/05/14 03:44:29;;;;;;;5.05;1.77;;;;;;;;;;6213308;23;20012;-85
2022/05/14 03:46:55;;;;;;;6.38;2.13;;;;;;;;;;6189375;23;20001;-85
2022/05/14 03:49:21;;;;;;;2.55;1.75;;;;;;;;;;6189270;23;20006;-84
2022/05/14 03:51:47;;;;;;;2.15;1.45;;;;;;;;;;6189044;23;20076;-85
2022/05/14 03:54:13;;;;;;;3.75;1.58;;;;;;;;;;6187914;23;20490;-85
2022/05/14 03:56:39;;;;;;;5.13;1.58;;;;;;;;;;6188037;23;20028;-83
2022/05/14 03:59:06;;;;;;;3.70;1.88;;;;;;;;;;6188784;23;20049;-85
2022/05/14 04:01:32;;;;;;;3.20;1.70;;;;;;;;;;6187782;23;20004;-84
2022/05/14 04:03:58;;;;;;;3.20;2.00;;;;;;;;;;6212022;23;20052;-85
2022/05/14 04:06:24;;;;;;;4.68;1.95;;;;;;;;;;6188496;23;20001;-85
2022/05/14 04:08:50;;;;;;;4.85;2.33;;;;;;;;;;6188981;23;20004;-84
2022/05/14 04:11:16;;;;;;;4.03;1.85;;;;;;;;;;6189045;23;20309;-85
2022/05/14 04:13:42;;;;;;;4.80;2.10;;;;;;;;;;6188273;23;20008;-85
2022/05/14 04:16:08;;;;;;;6.30;1.90;;;;;;;;;;6182921;23;20013;-87
2022/05/14 04:18:34;;;;;;;6.43;2.28;;;;;;;;;;6186443;23;20040;-86
2022/05/14 04:21:00;;;;;;;5.85;1.83;;;;;;;;;;6185315;23;20076;-87
2022/05/14 04:23:28;;;;;;;1.77;1.55;;;;;;;;;;6185949;23;20092;-87
2022/05/14 04:25:55;;;;;;;2.20;1.70;;;;;;;;;;6185975;23;20005;-87
2022/05/14 04:28:21;;;;;;;2.70;1.58;;;;;;;;;;6185575;23;20005;-86
2022/05/14 04:30:48;;;;;;;7.30;1.90;;;;;;;;;;6185002;23;20032;-86
2022/05/14 04:33:14;;;;;;;5.35;2.03;;;;;;;;;;6185222;23;20052;-86
2022/05/14 04:35:40;;;;;;;5.40;1.95;;;;;;;;;;6209298;23;20092;-87
2022/05/14 04:38:06;;;;;;;3.38;1.52;;;;;;;;;;6218070;23;20001;-88
2022/05/14 04:40:32;;;;;;;2.65;1.58;;;;;;;;;;6195053;23;20001;-87
2022/05/14 04:42:59;;;;;;;2.30;1.60;;;;;;;;;;6193130;23;20300;-88
2022/05/14 04:45:24;;;;;;;2.65;1.38;;;;;;;;;;6203174;23;20442;-88
2022/05/14 04:47:50;;;;;;;6.43;1.42;;;;;;;;;;6211855;23;20001;-88
2022/05/14 04:50:17;;;;;;;7.20;1.95;;;;;;;;;;6211682;23;20367;-88
2022/05/14 04:52:43;;;;;;;2.97;1.83;;;;;;;;;;6213655;23;20069;-89
2022/05/14 04:55:09;;;;;;;4.15;2.15;;;;;;;;;;6213121;23;20013;-88
2022/05/14 04:57:35;;;;;;;6.97;1.85;;;;;;;;;;6189471;23;19997;-88
2022/05/14 05:00:02;;;;;;;4.28;1.63;;;;;;;;;;6189894;23;20455;-87
2022/05/14 05:05:13;;;;;;;3.28;1.80;;;;;;;;;;6184340;23;20071;-88
2022/05/14 05:07:39;;;;;;;3.25;1.95;;;;;;;;;;6207691;23;20015;-87
2022/05/14 05:10:06;;;;;;;3.15;1.77;;;;;;;;;;6187099;23;20009;-87
2022/05/14 05:12:32;;;;;;;6.97;2.20;;;;;;;;;;6185283;23;20016;-88
2022/05/14 05:14:58;;;;;;;3.80;1.88;;;;;;;;;;6184087;23;20032;-88
2022/05/14 05:17:24;;;;;;;3.15;2.20;;;;;;;;;;6191123;23;20328;-88
2022/05/14 05:19:50;;;;;;;3.40;2.13;;;;;;;;;;6186859;23;20005;-87
2022/05/14 05:22:16;;;;;;;6.68;2.28;;;;;;;;;;6186121;23;20005;-87
2022/05/14 05:24:42;;;;;;;4.18;1.77;;;;;;;;;;6209282;23;20490;-89
2022/05/14 05:27:08;;;;;;;3.17;1.70;;;;;;;;;;6186205;23;19997;-88
2022/05/14 05:29:34;;;;;;;5.57;2.05;;;;;;;;;;6208061;23;20009;-85
2022/05/14 05:32:00;;;;;;;4.20;2.33;;;;;;;;;;6184251;23;20001;-86
2022/05/14 05:34:27;;;;;;;6.70;2.22;;;;;;;;;;6184273;23;20053;-86
2022/05/14 05:36:53;;;;;;;8.60;2.22;;;;;;;;;;6184523;23;20037;-86
2022/05/14 05:39:19;;;;;;;5.07;2.00;;;;;;;;;;6183972;23;20103;-86
2022/05/14 05:41:45;;;;;;;11.23;2.45;;;;;;;;;;6185180;23;20001;-86
2022/05/14 05:44:12;;;;;;;6.18;2.30;;;;;;;;;;6207211;23;20092;-87
2022/05/14 05:46:38;;;;;;;3.45;1.80;;;;;;;;;;6186211;23;20085;-86
2022/05/14 05:49:05;;;;;;;6.80;2.47;;;;;;;;;;6210227;23;20008;-87
2022/05/14 05:51:31;;;;;;;5.82;2.50;;;;;;;;;;6209757;23;20005;-87
2022/05/14 05:56:51;;;;;;;5.95;2.63;;;;;;;;;;6184131;23;20015;-87
2022/05/14 05:59:19;;;;;;;5.00;2.25;;;;;;;;;;6185717;23;20333;-87
2022/05/14 06:01:45;;;;;;;5.90;2.47;;;;;;;;;;6185581;23;20335;-87
2022/05/14 06:04:11;;;;;;;6.75;2.15;;;;;;;;;;6209203;23;20005;-87
2022/05/14 06:06:41;;;;;;;4.13;2.28;;;;;;;;;;6185026;23;20009;-86
2022/05/14 06:09:08;;;;;;;7.53;2.05;;;;;;;;;;6185354;23;20005;-86
2022/05/14 06:11:34;;;;;;;6.65;2.97;;;;;;;;;;6186609;23;20009;-86
2022/05/14 06:14:00;;;;;;;7.28;2.55;;;;;;;;;;6209302;23;20040;-87
2022/05/14 06:16:26;;;;;;;7.65;2.35;;;;;;;;;;6209331;23;20060;-87
2022/05/14 06:18:52;;;;;;;7.30;2.10;;;;;;;;;;6209328;23;20005;-87
2022/05/14 06:21:18;;;;;;;7.32;2.60;;;;;;;;;;6186256;23;20067;-86
2022/05/14 06:23:44;;;;;;;4.45;2.30;;;;;;;;;;6186719;23;20435;-87
2022/05/14 06:26:10;;;;;;;6.32;2.55;;;;;;;;;;6186195;23;20515;-86
2022/05/14 06:28:36;;;;;;;5.00;2.10;;;;;;;;;;6209277;23;20016;-87
2022/05/14 06:31:03;;;;;;;13.10;2.80;;;;;;;;;;6186230;23;20005;-85
2022/05/14 06:33:30;;;;;;;2.38;1.90;;;;;;;;;;6185655;23;20036;-87
2022/05/14 06:35:58;;;;;;;6.63;2.25;;;;;;;;;;6185686;23;20008;-88
2022/05/14 06:38:24;;;;;;;7.07;2.17;;;;;;;;;;6211556;23;20001;-87
2022/05/14 06:40:50;;;;;;;5.20;1.88;;;;;;;;;;6200492;23;20017;-87
2022/05/14 06:43:16;;;;;;;9.23;2.55;;;;;;;;;;6209607;23;20004;-88
2022/05/14 06:45:43;;;;;;;8.27;2.17;;;;;;;;;;6187746;23;20056;-89
2022/05/14 06:48:09;;;;;;;7.88;2.10;;;;;;;;;;6190189;23;20061;-88
2022/05/14 06:50:40;;;;;;;3.63;1.92;;;;;;;;;;6186860;23;20458;-87
2022/05/14 06:53:06;;;;;;;11.73;2.28;;;;;;;;;;6187926;23;20001;-89
2022/05/14 06:55:36;;;;;;;12.27;2.20;;;;;;;;;;6213378;23;20025;-87
2022/05/14 06:58:03;;;;;;;7.13;2.53;;;;;;;;;;6210261;23;20011;-88
2022/05/14 07:00:29;;;;;;;4.80;1.88;;;;;;;;;;6187432;23;20001;-88
2022/05/14 07:06:37;;;;;;;6.05;2.40;;;;;;;;;;6186296;23;20031;-88
2022/05/14 07:08:26;;;;;;;4.78;1.70;;;;;;;;;;6186214;23;20063;-87
2022/05/14 07:10:52;;;;;;;5.25;2.10;;;;;;;;;;6186536;23;20012;-89
2022/05/14 07:13:18;;;;;;;4.45;1.80;;;;;;;;;;6188844;23;20001;-87
2022/05/14 07:15:44;;;;;;;7.22;2.00;;;;;;;;;;6185895;23;20028;-87
2022/05/14 07:18:10;;;;;;;3.92;1.58;;;;;;;;;;6212121;23;20012;-86
2022/05/14 07:20:36;;;;;;;10.18;2.38;;;;;;;;;;6185704;23;20490;-87
2022/05/14 07:23:03;;;;;;;5.05;1.65;;;;;;;;;;6186009;23;20001;-88
2022/05/14 07:25:29;;;;;;;9.02;1.52;;;;;;;;;;6189243;23;20005;-89
2022/05/14 07:27:55;;;;;;;4.03;2.10;;;;;;;;;;6211687;23;20001;-88
2022/05/14 07:30:21;;;;;;;7.72;1.88;;;;;;;;;;6210299;23;20329;-88
2022/05/14 07:32:47;;;;;;;9.90;1.95;;;;;;;;;;6186055;23;20418;-86
2022/05/14 07:35:13;;;;;;;6.65;2.00;;;;;;;;;;6210093;23;20001;-87
2022/05/14 07:37:41;;;;;;;5.95;2.08;;;;;;;;;;6186031;23;20028;-86
2022/05/14 07:40:09;;;;;;;12.25;1.85;;;;;;;;;;6186027;23;20384;-88
2022/05/14 07:42:41;;;;;;;5.65;2.10;;;;;;;;;;6185827;23;19997;-87
2022/05/14 07:45:08;;;;;;;5.95;2.00;;;;;;;;;;6209488;23;20011;-87
2022/05/14 07:47:35;;;;;;;5.82;1.88;;;;;;;;;;6187229;23;20016;-88
2022/05/14 07:50:05;;;;;;;5.05;1.83;;;;;;;;;;6210641;23;20005;-87
2022/05/14 07:55:53;;;;;;;7.95;1.88;;;;;;;;;;6136044;23;20005;-88
2022/05/14 07:58:19;;;;;;;3.58;1.50;;;;;;;;;;6185532;23;20309;-89
2022/05/14 08:00:45;;;;;;;8.32;1.88;;;;;;;;;;6186594;23;20004;-88
2022/05/14 08:03:11;;;;;;;7.07;1.45;;;;;;;;;;6186509;23;20035;-88
2022/05/14 08:05:37;;;;;;;2.75;1.38;;;;;;;;;;6186388;23;20364;-87
2022/05/14 08:08:03;;;;;;;7.20;1.30;;;;;;;;;;6217600;23;20016;-89
2022/05/14 08:10:29;;;;;;;4.07;1.10;;;;;;;;;;6211200;23;20016;-88
2022/05/14 08:12:56;;;;;;;3.25;1.50;;;;;;;;;;6236421;23;19993;-89
2022/05/14 08:15:24;;;;;;;6.60;1.27;;;;;;;;;;6211461;23;20001;-88
2022/05/14 08:17:50;;;;;;;2.05;0.93;;;;;;;;;;6211976;23;20016;-89
2022/05/14 08:20:16;;;;;;;2.30;1.00;;;;;;;;;;6198099;23;19997;-89
2022/05/14 08:25:28;;;;;;;8.45;1.15;;;;;;;;;;6186740;23;20510;-87
2022/05/14 08:27:54;;;;;;;3.80;1.38;;;;;;;;;;6209955;23;20001;-88
2022/05/14 08:30:25;;;;;;;7.75;1.60;;;;;;;;;;6187678;23;20462;-88
2022/05/14 08:32:51;;;;;;;3.35;1.13;;;;;;;;;;6188074;23;20001;-88
2022/05/14 08:35:18;;;;;;;4.30;1.08;;;;;;;;;;6199712;23;20478;-88
2022/05/14 08:37:47;;;;;;;14.98;1.65;;;;;;;;;;6212501;23;20009;-89
2022/05/14 08:40:37;;;;;;;5.45;1.33;;;;;;;;;;6210330;23;20016;-89
2022/05/14 08:43:04;;;;;;;3.47;1.40;;;;;;;;;;6182278;23;20096;-89
2022/05/14 08:45:33;;;;;;;3.67;1.45;;;;;;;;;;6185878;23;20056;-87
2022/05/14 08:48:01;;;;;;;2.80;1.63;;;;;;;;;;6186188;23;20016;-88
2022/05/14 08:50:30;;;;;;;3.13;1.33;;;;;;;;;;6186437;23;20025;-88
2022/05/14 08:53:00;;;;;;;3.72;1.25;;;;;;;;;;6209313;23;20012;-88
2022/05/14 08:55:30;;;;;;;7.93;1.83;;;;;;;;;;6209448;23;20331;-87
2022/05/14 08:58:09;;;;;;;8.98;1.60;;;;;;;;;;6186944;23;19997;-89
2022/05/14 09:00:40;;;;;;;2.50;1.23;;;;;;;;;;6185071;23;20437;-88
2022/05/14 09:03:06;;;;;;;5.47;1.70;;;;;;;;;;6185727;23;20005;-89
2022/05/14 09:05:34;;;;;;;3.47;1.23;;;;;;;;;;6185408;23;20001;-89
2022/05/14 09:08:01;;;;;;;7.72;1.88;;;;;;;;;;6185501;23;20009;-89
2022/05/14 09:10:32;;;;;;;4.50;1.40;;;;;;;;;;6183567;23;20091;-88
2022/05/14 09:13:11;;;;;;;7.00;1.40;;;;;;;;;;6185002;23;20012;-89
2022/05/14 09:15:43;;;;;;;2.88;1.40;;;;;;;;;;6184710;23;20012;-89
2022/05/14 09:18:10;;;;;;;3.22;1.38;;;;;;;;;;6208599;23;20343;-88
2022/05/14 09:20:50;;;;;;;3.35;1.80;;;;;;;;;;6209675;23;19997;-89
2022/05/14 09:23:26;;;;;;;2.38;1.00;;;;;;;;;;6187220;23;20379;-89
2022/05/14 09:25:52;;;;;;;5.45;2.13;;;;;;;;;;6187268;23;20486;-88
2022/05/14 09:28:26;;;;;;;6.78;1.38;;;;;;;;;;6210777;23;20012;-89
2022/05/14 09:30:54;;;;;;;3.20;1.55;;;;;;;;;;6213074;23;20456;-88
2022/05/14 09:33:27;;;;;;;4.90;1.30;;;;;;;;;;6186856;23;20088;-89
2022/05/14 09:35:55;;;;;;;5.90;1.20;;;;;;;;;;6210634;23;20005;-90
2022/05/14 09:38:23;;;;;;;10.20;1.52;;;;;;;;;;6187626;23;20021;-89
2022/05/14 09:40:49;;;;;;;6.00;1.38;;;;;;;;;;6187895;23;20012;-89
2022/05/14 09:43:48;;;;;;;5.75;1.70;;;;;;;;;;6187286;23;20072;-89
2022/05/14 09:46:28;;;;;;;3.25;1.08;;;;;;;;;;6179019;23;20012;-88
2022/05/14 09:49:00;;;;;;;2.70;1.45;;;;;;;;;;6190340;23;20016;-87
2022/05/14 09:51:31;;;;;;;7.70;1.70;;;;;;;;;;6211171;23;20057;-88
2022/05/14 09:54:07;;;;;;;6.43;1.50;;;;;;;;;;6210266;23;20087;-86
2022/05/14 09:56:42;;;;;;;6.22;1.60;;;;;;;;;;6186597;23;20001;-86
2022/05/14 09:59:08;;;;;;;4.07;1.48;;;;;;;;;;6210265;23;20005;-88
2022/05/14 10:01:44;;;;;;;8.55;1.63;;;;;;;;;;6210167;23;20106;-87
2022/05/14 10:04:11;;;;;;;8.18;1.50;;;;;;;;;;6186725;23;20005;-88
2022/05/14 10:06:51;;;;;;;4.88;1.30;;;;;;;;;;6186177;23;20024;-86
2022/05/14 10:09:29;;;;;;;11.38;1.70;;;;;;;;;;6187006;23;20056;-87
2022/05/14 10:12:03;;;;;;;5.43;1.40;;;;;;;;;;6186617;23;20072;-88
2022/05/14 10:14:48;;;;;;;3.80;1.27;;;;;;;;;;6186700;23;20009;-88
2022/05/14 10:17:19;;;;;;;3.10;1.45;;;;;;;;;;6208942;23;20044;-86
2022/05/14 10:19:51;;;;;;;2.95;1.33;;;;;;;;;;6209283;23;20443;-88
2022/05/14 10:22:22;;;;;;;7.22;1.33;;;;;;;;;;6185770;23;20458;-87
2022/05/14 10:28:03;;;;;;;2.92;1.10;;;;;;;;;;6185506;23;20020;-85
2022/05/14 10:30:47;;;;;;;2.25;1.42;;;;;;;;;;6187324;23;20001;-87
2022/05/14 10:33:17;;;;;;;3.25;0.90;;;;;;;;;;6208578;23;20005;-87
2022/05/14 10:35:53;;;;;;;4.63;1.00;;;;;;;;;;6208695;23;20384;-88
2022/05/14 10:38:25;;;;;;;2.53;0.80;;;;;;;;;;6209190;23;20005;-85
2022/05/14 10:40:53;;;;;;;5.22;1.08;;;;;;;;;;6185775;23;20009;-87
2022/05/14 10:43:25;;;;;;;4.80;1.42;;;;;;;;;;6208907;23;20435;-87
2022/05/14 10:45:53;;;;;;;3.72;0.88;;;;;;;;;;6208711;23;20136;-87
2022/05/14 10:48:38;;;;;;;3.92;0.88;;;;;;;;;;6185620;23;20059;-87
2022/05/14 10:51:05;;;;;;;1.60;1.00;;;;;;;;;;6185029;23;20008;-89
2022/05/14 10:53:32;;;;;;;2.47;1.13;;;;;;;;;;6185508;23;20052;-87
2022/05/14 10:56:01;;;;;;;2.47;0.82;;;;;;;;;;6185257;23;20008;-87
2022/05/14 10:58:42;;;;;;;4.68;0.93;;;;;;;;;;6185592;23;20001;-88
2022/05/14 11:01:09;;;;;;;4.18;1.13;;;;;;;;;;6185482;23;20006;-86
2022/05/14 11:03:36;;;;;;;8.75;1.70;;;;;;;;;;6208857;23;20458;-87
2022/05/14 11:06:02;;;;;;;3.08;1.23;;;;;;;;;;6185048;23;20319;-88
2022/05/14 11:08:28;;;;;;;4.15;1.08;;;;;;;;;;6186341;23;20462;-88
2022/05/14 11:11:02;;;;;;;3.75;0.98;;;;;;;;;;6187217;23;20376;-88
2022/05/14 11:13:28;;;;;;;3.22;0.95;;;;;;;;;;6186913;23;20001;-89
2022/05/14 11:16:10;;;;;;;2.33;0.98;;;;;;;;;;6208739;23;20101;-86
2022/05/14 11:18:45;;;;;;;8.32;1.10;;;;;;;;;;6210120;23;20005;-87
2022/05/14 11:21:13;;;;;;;3.03;1.00;;;;;;;;;;6208801;23;20558;-87
2022/05/14 11:23:50;;;;;;;5.75;1.08;;;;;;;;;;6185508;23;20462;-87
2022/05/14 11:26:16;;;;;;;3.00;1.50;;;;;;;;;;6208926;23;20008;-88
2022/05/14 11:28:44;;;;;;;4.13;1.10;;;;;;;;;;6192187;23;20511;-89
2022/05/14 11:31:14;;;;;;;2.75;1.15;;;;;;;;;;6208192;23;20060;-89
2022/05/14 11:33:41;;;;;;;3.72;1.00;;;;;;;;;;6185293;23;20009;-89
2022/05/14 11:36:07;;;;;;;3.42;0.98;;;;;;;;;;6184858;23;20507;-89
2022/05/14 11:38:35;;;;;;;5.40;1.23;;;;;;;;;;6208760;23;20001;-88
2022/05/14 11:41:05;;;;;;;4.60;1.40;;;;;;;;;;6208572;23;20466;-87
2022/05/14 11:43:34;;;;;;;5.25;1.48;;;;;;;;;;6208460;23;20443;-88
2022/05/14 11:46:09;;;;;;;2.50;1.10;;;;;;;;;;6208847;23;20329;-88
2022/05/14 11:48:41;;;;;;;2.58;0.90;;;;;;;;;;6185367;23;20029;-87
2022/05/14 11:51:15;;;;;;;7.05;1.27;;;;;;;;;;6208930;23;20015;-88
2022/05/14 11:53:43;;;;;;;5.68;1.00;;;;;;;;;;6184873;23;20340;-87
2022/05/14 11:56:12;;;;;;;2.63;0.95;;;;;;;;;;6184936;23;20059;-88
2022/05/14 11:58:42;;;;;;;4.78;1.05;;;;;;;;;;6185255;23;20001;-88
2022/05/14 12:01:11;;;;;;;2.38;1.17;;;;;;;;;;6185325;23;20075;-88
2022/05/14 12:03:44;;;;;;;2.85;1.30;;;;;;;;;;6207998;23;20335;-89
2022/05/14 12:06:19;;;;;;;3.80;0.98;;;;;;;;;;6184532;23;20009;-86
2022/05/14 12:08:48;;;;;;;4.38;1.25;;;;;;;;;;6184804;23;20451;-88
2022/05/14 12:11:33;;;;;;;2.90;1.02;;;;;;;;;;6184400;23;20005;-88
2022/05/14 12:14:02;;;;;;;6.25;1.00;;;;;;;;;;6184789;23;20001;-88
2022/05/14 12:16:33;;;;;;;5.03;1.00;;;;;;;;;;6208152;23;20040;-89
2022/05/14 12:19:00;;;;;;;1.90;0.80;;;;;;;;;;6184898;23;20083;-89
2022/05/14 12:21:26;;;;;;;3.72;0.90;;;;;;;;;;6184627;23;20008;-88
2022/05/14 12:23:52;;;;;;;2.95;1.02;;;;;;;;;;6184772;23;20005;-88
2022/05/14 12:26:26;;;;;;;3.83;0.95;;;;;;;;;;6208033;23;20012;-88
2022/05/14 12:28:53;;;;;;;5.05;0.93;;;;;;;;;;6210363;23;20031;-88
2022/05/14 12:34:12;;;;;;;8.10;1.10;;;;;;;;;;6184765;23;20100;-88
2022/05/14 12:36:43;;;;;;;5.32;0.82;;;;;;;;;;6207799;23;20308;-89
2022/05/14 12:39:29;;;;;;;3.33;0.85;;;;;;;;;;6184565;23;20431;-88
2022/05/14 12:41:57;;;;;;;4.50;1.13;;;;;;;;;;6184152;23;20386;-88
2022/05/14 12:44:28;;;;;;;4.95;1.15;;;;;;;;;;6207902;23;20060;-89
2022/05/14 12:46:56;;;;;;;3.75;0.90;;;;;;;;;;6184525;23;20005;-88
2022/05/14 12:49:29;;;;;;;1.80;0.80;;;;;;;;;;6184696;23;20431;-88
2022/05/14 12:51:58;;;;;;;3.00;0.75;;;;;;;;;;6208240;23;20001;-87
2022/05/14 12:54:26;;;;;;;5.28;1.10;;;;;;;;;;6185075;23;20020;-88
2022/05/14 12:56:54;;;;;;;4.15;1.08;;;;;;;;;;6187625;23;20001;-88
2022/05/14 12:59:20;;;;;;;3.83;0.90;;;;;;;;;;6211672;23;20012;-88
2022/05/14 13:01:49;;;;;;;1.50;0.95;;;;;;;;;;6188005;23;20032;-88
2022/05/14 13:04:15;;;;;;;2.65;0.70;;;;;;;;;;6188114;23;20008;-88
2022/05/14 13:06:44;;;;;;;2.95;0.82;;;;;;;;;;6187782;23;20005;-88
2022/05/14 13:09:10;;;;;;;3.33;1.20;;;;;;;;;;6211653;23;20036;-89
2022/05/14 13:11:37;;;;;;;1.05;0.73;;;;;;;;;;6187729;23;20001;-87
2022/05/14 13:14:21;;;;;;;5.78;1.38;;;;;;;;;;6211436;23;20008;-89
2022/05/14 13:16:55;;;;;;;4.65;1.20;;;;;;;;;;6187629;23;20439;-87
2022/05/14 13:19:23;;;;;;;3.60;1.00;;;;;;;;;;6211148;23;20453;-87
2022/05/14 13:21:50;;;;;;;1.92;1.00;;;;;;;;;;6210941;23;20432;-88
2022/05/14 13:24:19;;;;;;;5.50;1.17;;;;;;;;;;6187930;23;20075;-88
2022/05/14 13:26:47;;;;;;;2.53;0.60;;;;;;;;;;6210944;23;20005;-89
2022/05/14 13:29:13;;;;;;;3.72;0.98;;;;;;;;;;6211357;23;20052;-88
2022/05/14 13:31:39;;;;;;;7.10;1.15;;;;;;;;;;6187744;23;20005;-86
2022/05/14 13:37:11;;;;;;;3.78;1.00;;;;;;;;;;6187682;23;20422;-88
2022/05/14 13:39:46;;;;;;;2.47;1.02;;;;;;;;;;6188176;23;20008;-87
2022/05/14 13:42:32;;;;;;;1.42;0.70;;;;;;;;;;6211565;23;20389;-87
2022/05/14 13:45:03;;;;;;;4.95;1.48;;;;;;;;;;6186852;23;20060;-88
2022/05/14 13:47:29;;;;;;;4.68;1.00;;;;;;;;;;6211237;23;20458;-88
2022/05/14 13:49:57;;;;;;;3.75;0.98;;;;;;;;;;6211271;23;20009;-85
2022/05/14 13:52:25;;;;;;;3.40;0.70;;;;;;;;;;6187844;23;20443;-86
2022/05/14 13:55:00;;;;;;;6.47;1.70;;;;;;;;;;6211449;23;20009;-88
2022/05/14 13:57:26;;;;;;;2.70;0.93;;;;;;;;;;6188037;23;20338;-88
2022/05/14 14:00:08;;;;;;;2.20;1.10;;;;;;;;;;6211674;23;19997;-89
2022/05/14 14:02:34;;;;;;;2.53;1.10;;;;;;;;;;6211411;23;20005;-87
2022/05/14 14:05:07;;;;;;;3.88;1.00;;;;;;;;;;6211422;23;20035;-87
2022/05/14 14:07:36;;;;;;;4.47;1.30;;;;;;;;;;6186398;23;20025;-88
2022/05/14 14:10:08;;;;;;;16.13;1.80;;;;;;;;;;6185365;23;20060;-86
2022/05/14 14:12:34;;;;;;;5.18;1.10;;;;;;;;;;6186066;23;20015;-86
2022/05/14 14:15:01;;;;;;;1.85;0.70;;;;;;;;;;6208914;23;20083;-90
2022/05/14 14:17:27;;;;;;;2.55;0.85;;;;;;;;;;6186222;23;20008;-88
2022/05/14 14:19:53;;;;;;;5.60;0.90;;;;;;;;;;6209326;23;20009;-88
2022/05/14 14:22:23;;;;;;;5.05;0.88;;;;;;;;;;6185864;23;20005;-88
2022/05/14 14:24:51;;;;;;;3.35;1.02;;;;;;;;;;6209412;23;20013;-89
2022/05/14 14:27:18;;;;;;;3.35;0.77;;;;;;;;;;6186403;23;20257;-86
2022/05/14 14:29:44;;;;;;;5.78;1.83;;;;;;;;;;6187101;23;20012;-88
2022/05/14 14:32:16;;;;;;;5.40;1.10;;;;;;;;;;6209461;23;20037;-88
2022/05/14 14:34:43;;;;;;;2.28;0.75;;;;;;;;;;6185488;23;20036;-88
2022/05/14 14:37:09;;;;;;;2.50;0.98;;;;;;;;;;6186067;23;20005;-88
2022/05/14 14:39:35;;;;;;;4.13;0.77;;;;;;;;;;6194759;23;20001;-88
2022/05/14 14:42:01;;;;;;;2.33;1.10;;;;;;;;;;6231839;23;20009;-88
2022/05/14 14:44:28;;;;;;;3.78;1.00;;;;;;;;;;6234181;23;20064;-86
2022/05/14 14:46:58;;;;;;;5.07;1.20;;;;;;;;;;6234274;23;20032;-87
2022/05/14 14:49:26;;;;;;;7.75;0.90;;;;;;;;;;6207458;23;19996;-88
2022/05/14 14:51:52;;;;;;;3.20;1.02;;;;;;;;;;6233847;23;20017;-88
2022/05/14 14:54:21;;;;;;;3.35;1.27;;;;;;;;;;6209173;23;20024;-89
2022/05/14 14:56:47;;;;;;;3.40;1.00;;;;;;;;;;6233913;23;19993;-88
2022/05/14 14:59:14;;;;;;;1.98;0.77;;;;;;;;;;6234924;23;20020;-89
2022/05/14 15:01:46;;;;;;;2.83;0.93;;;;;;;;;;6211083;23;20001;-87
2022/05/14 15:04:18;;;;;;;4.63;1.00;;;;;;;;;;6211271;23;20001;-89
2022/05/14 15:06:51;;;;;;;4.07;1.02;;;;;;;;;;6212632;23;20073;-89
2022/05/14 15:09:17;;;;;;;2.78;0.90;;;;;;;;;;6233888;23;19989;-89
2022/05/14 15:11:46;;;;;;;5.50;1.00;;;;;;;;;;6234400;23;20040;-90
2022/05/14 15:14:14;;;;;;;3.53;1.08;;;;;;;;;;6236035;23;20069;-89
2022/05/14 15:16:43;;;;;;;4.53;1.10;;;;;;;;;;6234326;23;20020;-89
2022/05/14 15:19:09;;;;;;;2.83;1.15;;;;;;;;;;6234059;23;19993;-89